sensor_id;sensor_type;location;lat;lon;timestamp;pressure;altitude;pressure_sealevel;temperature;humidity
20622;BME280;10470;42.670;23.354;2023-06-24T00:01:51;94865.03;;;23.90;100.00
20622;BME280;10470;42.670;23.354;2023-06-24T00:04:18;94862.25;;;23.90;100.00
20622;BME280;10470;42.670;23.354;2023-06-24T00:06:48;94862.25;;;23.76;100.00
20622;BME280;10470;42.670;23.354;2023-06-24T00:09:16;94866.31;;;23.89;100.00
20622;BME280;10470;42.670;23.354;2023-06-24T00:11:44;94867.63;;;24.01;100.00
20622;BME280;10470;42.670;23.354;2023-06-24T00:14:20;94865.56;;;23.88;100.00
20622;BME280;10470;42.670;23.354;2023-06-24T00:16:54;94864.41;;;23.51;100.00
20622;BME280;10470;42.670;23.354;2023-06-24T00:19:25;94863.16;;;23.66;100.00
20622;BME280;10470;42.670;23.354;2023-06-24T00:21:53;94858.88;;;23.65;100.00
20622;BME280;10470;42.670;23.354;2023-06-24T00:24:21;94860.91;;;23.64;100.00
20622;BME280;10470;42.670;23.354;2023-06-24T00:26:52;94848.94;;;23.56;100.00
20622;BME280;10470;42.670;23.354;2023-06-24T00:29:20;94860.59;;;23.68;100.00
20622;BME280;10470;42.670;23.354;2023-06-24T00:31:48;94855.66;;;23.61;100.00
20622;BME280;10470;42.670;23.354;2023-06-24T00:34:15;94865.75;;;23.64;100.00
20622;BME280;10470;42.670;23.354;2023-06-24T00:36:44;94853.69;;;23.42;100.00
20622;BME280;10470;42.670;23.354;2023-06-24T00:39:14;94866.69;;;23.21;100.00
20622;BME280;10470;42.670;23.354;2023-06-24T00:41:42;94862.13;;;23.37;100.00
20622;BME280;10470;42.670;23.354;2023-06-24T00:44:09;94865.72;;;23.50;100.00
20622;BME280;10470;42.670;23.354;2023-06-24T00:46:40;94849.75;;;23.38;100.00
20622;BME280;10470;42.670;23.354;2023-06-24T00:49:08;94852.72;;;23.40;100.00
20622;BME280;10470;42.670;23.354;2023-06-24T00:51:36;94855.69;;;23.28;100.00
20622;BME280;10470;42.670;23.354;2023-06-24T00:54:04;94855.22;;;23.43;100.00
20622;BME280;10470;42.670;23.354;2023-06-24T00:56:34;94859.53;;;23.25;100.00
20622;BME280;10470;42.670;23.354;2023-06-24T00:59:02;94850.84;;;23.16;100.00
20622;BME280;10470;42.670;23.354;2023-06-24T01:01:32;94846.38;;;23.26;100.00
20622;BME280;10470;42.670;23.354;2023-06-24T01:04:01;94841.28;;;23.30;100.00
20622;BME280;10470;42.670;23.354;2023-06-24T01:06:30;94839.22;;;22.98;100.00
20622;BME280;10470;42.670;23.354;2023-06-24T01:08:59;94835.47;;;23.15;100.00
20622;BME280;10470;42.670;23.354;2023-06-24T01:11:29;94832.75;;;23.09;100.00
20622;BME280;10470;42.670;23.354;2023-06-24T01:13:57;94830.41;;;23.13;100.00
20622;BME280;10470;42.670;23.354;2023-06-24T01:16:46;94828.69;;;23.10;100.00
20622;BME280;10470;42.670;23.354;2023-06-24T01:30:38;94825.81;;;23.16;100.00
20622;BME280;10470;42.670;23.354;2023-06-24T01:33:14;94834.38;;;23.18;100.00
20622;BME280;10470;42.670;23.354;2023-06-24T01:35:43;94838.38;;;23.22;100.00
20622;BME280;10470;42.670;23.354;2023-06-24T01:38:17;94832.53;;;23.07;100.00
20622;BME280;10470;42.670;23.354;2023-06-24T01:40:49;94830.88;;;22.98;100.00
20622;BME280;10470;42.670;23.354;2023-06-24T01:43:20;94827.59;;;22.81;100.00
20622;BME280;10470;42.670;23.354;2023-06-24T01:45:52;94836.22;;;22.96;100.00
20622;BME280;10470;42.670;23.354;2023-06-24T01:48:27;94848.09;;;22.97;100.00
20622;BME280;10470;42.670;23.354;2023-06-24T01:50:58;94869.13;;;22.92;100.00
20622;BME280;10470;42.670;23.354;2023-06-24T01:53:28;94872.94;;;22.89;100.00
20622;BME280;10470;42.670;23.354;2023-06-24T01:55:59;94855.69;;;22.58;100.00
20622;BME280;10470;42.670;23.354;2023-06-24T01:58:27;94874.38;;;22.39;100.00
20622;BME280;10470;42.670;23.354;2023-06-24T02:00:56;94862.72;;;22.21;100.00
20622;BME280;10470;42.670;23.354;2023-06-24T02:03:25;94862.88;;;22.29;100.00
20622;BME280;10470;42.670;23.354;2023-06-24T02:05:54;94870.47;;;22.48;100.00
20622;BME280;10470;42.670;23.354;2023-06-24T02:08:25;94873.25;;;22.29;100.00
20622;BME280;10470;42.670;23.354;2023-06-24T02:10:57;94870.06;;;21.94;100.00
20622;BME280;10470;42.670;23.354;2023-06-24T02:13:25;94867.50;;;21.96;100.00
20622;BME280;10470;42.670;23.354;2023-06-24T02:15:52;94868.13;;;22.33;100.00
20622;BME280;10470;42.670;23.354;2023-06-24T02:18:22;94872.19;;;22.51;100.00
20622;BME280;10470;42.670;23.354;2023-06-24T02:20:50;94860.50;;;22.39;100.00
20622;BME280;10470;42.670;23.354;2023-06-24T02:23:19;94877.03;;;22.25;100.00
20622;BME280;10470;42.670;23.354;2023-06-24T02:25:49;94870.75;;;22.25;100.00
20622;BME280;10470;42.670;23.354;2023-06-24T02:28:17;94870.97;;;22.27;100.00
20622;BME280;10470;42.670;23.354;2023-06-24T02:30:45;94888.03;;;22.37;100.00
20622;BME280;10470;42.670;23.354;2023-06-24T02:33:14;94883.19;;;21.69;100.00
20622;BME280;10470;42.670;23.354;2023-06-24T02:35:41;94889.88;;;22.04;100.00
20622;BME280;10470;42.670;23.354;2023-06-24T02:38:09;94895.53;;;22.17;100.00
20622;BME280;10470;42.670;23.354;2023-06-24T02:40:37;94906.41;;;22.15;100.00
20622;BME280;10470;42.670;23.354;2023-06-24T02:43:04;94910.16;;;22.18;100.00
20622;BME280;10470;42.670;23.354;2023-06-24T02:45:32;94907.28;;;22.04;100.00
20622;BME280;10470;42.670;23.354;2023-06-24T02:48:00;94902.78;;;22.01;100.00
20622;BME280;10470;42.670;23.354;2023-06-24T02:50:28;94902.91;;;21.90;100.00
20622;BME280;10470;42.670;23.354;2023-06-24T02:52:56;94902.94;;;22.09;100.00
20622;BME280;10470;42.670;23.354;2023-06-24T02:55:26;94896.94;;;22.05;100.00
20622;BME280;10470;42.670;23.354;2023-06-24T02:57:54;94899.94;;;22.07;100.00
20622;BME280;10470;42.670;23.354;2023-06-24T03:00:23;94906.59;;;22.23;100.00
20622;BME280;10470;42.670;23.354;2023-06-24T03:02:52;94909.03;;;22.08;100.00
20622;BME280;10470;42.670;23.354;2023-06-24T03:05:19;94914.78;;;21.25;100.00
20622;BME280;10470;42.670;23.354;2023-06-24T03:07:49;94899.50;;;21.48;100.00
20622;BME280;10470;42.670;23.354;2023-06-24T03:10:16;94897.69;;;21.81;100.00
20622;BME280;10470;42.670;23.354;2023-06-24T03:12:44;94895.31;;;21.91;100.00
20622;BME280;10470;42.670;23.354;2023-06-24T03:15:11;94896.19;;;21.80;100.00
20622;BME280;10470;42.670;23.354;2023-06-24T03:17:40;94898.13;;;21.60;100.00
20622;BME280;10470;42.670;23.354;2023-06-24T03:20:07;94891.38;;;21.80;100.00
20622;BME280;10470;42.670;23.354;2023-06-24T03:22:35;94887.78;;;22.10;100.00
20622;BME280;10470;42.670;23.354;2023-06-24T03:25:02;94884.06;;;22.08;100.00
20622;BME280;10470;42.670;23.354;2023-06-24T03:27:30;94887.03;;;22.10;100.00
20622;BME280;10470;42.670;23.354;2023-06-24T03:29:58;94883.06;;;21.80;100.00
20622;BME280;10470;42.670;23.354;2023-06-24T03:32:26;94900.47;;;22.06;100.00
20622;BME280;10470;42.670;23.354;2023-06-24T03:34:54;94912.94;;;22.23;100.00
20622;BME280;10470;42.670;23.354;2023-06-24T03:37:21;94923.50;;;22.25;100.00
20622;BME280;10470;42.670;23.354;2023-06-24T03:39:49;94930.63;;;22.15;100.00
20622;BME280;10470;42.670;23.354;2023-06-24T03:42:16;94928.06;;;22.22;100.00
20622;BME280;10470;42.670;23.354;2023-06-24T03:44:44;94929.59;;;22.23;100.00
20622;BME280;10470;42.670;23.354;2023-06-24T03:47:12;94929.78;;;22.50;100.00
20622;BME280;10470;42.670;23.354;2023-06-24T03:49:40;94932.22;;;22.35;100.00
20622;BME280;10470;42.670;23.354;2023-06-24T03:52:08;94937.44;;;22.44;100.00
20622;BME280;10470;42.670;23.354;2023-06-24T03:54:36;94943.25;;;22.84;100.00
20622;BME280;10470;42.670;23.354;2023-06-24T03:57:04;94933.63;;;22.66;100.00
20622;BME280;10470;42.670;23.354;2023-06-24T03:59:32;94931.41;;;22.40;100.00
20622;BME280;10470;42.670;23.354;2023-06-24T04:02:00;94929.16;;;22.38;100.00
20622;BME280;10470;42.670;23.354;2023-06-24T04:04:28;94931.00;;;22.55;100.00
20622;BME280;10470;42.670;23.354;2023-06-24T04:06:55;94935.34;;;22.50;100.00
20622;BME280;10470;42.670;23.354;2023-06-24T04:09:23;94937.75;;;22.59;100.00
20622;BME280;10470;42.670;23.354;2023-06-24T04:11:51;94938.19;;;22.44;100.00
20622;BME280;10470;42.670;23.354;2023-06-24T04:14:18;94940.00;;;22.80;100.00
20622;BME280;10470;42.670;23.354;2023-06-24T04:16:46;94942.75;;;22.42;100.00
20622;BME280;10470;42.670;23.354;2023-06-24T04:19:14;94942.00;;;22.41;100.00
20622;BME280;10470;42.670;23.354;2023-06-24T04:21:42;94913.19;;;22.63;100.00
20622;BME280;10470;42.670;23.354;2023-06-24T04:24:10;94932.50;;;22.75;100.00
20622;BME280;10470;42.670;23.354;2023-06-24T04:26:37;94937.38;;;22.68;100.00
20622;BME280;10470;42.670;23.354;2023-06-24T04:29:05;94929.94;;;22.58;100.00
20622;BME280;10470;42.670;23.354;2023-06-24T04:31:34;94925.13;;;22.77;100.00
20622;BME280;10470;42.670;23.354;2023-06-24T04:34:02;94912.16;;;22.66;100.00
20622;BME280;10470;42.670;23.354;2023-06-24T04:36:29;94911.78;;;22.76;100.00
20622;BME280;10470;42.670;23.354;2023-06-24T04:38:56;94921.72;;;23.09;100.00
20622;BME280;10470;42.670;23.354;2023-06-24T04:41:25;94928.47;;;23.14;100.00
20622;BME280;10470;42.670;23.354;2023-06-24T04:43:52;94937.84;;;23.29;100.00
20622;BME280;10470;42.670;23.354;2023-06-24T04:46:20;94936.56;;;23.30;100.00
20622;BME280;10470;42.670;23.354;2023-06-24T04:48:48;94930.53;;;23.45;100.00
20622;BME280;10470;42.670;23.354;2023-06-24T04:51:16;94946.53;;;23.58;100.00
20622;BME280;10470;42.670;23.354;2023-06-24T04:53:44;94956.72;;;23.69;100.00
20622;BME280;10470;42.670;23.354;2023-06-24T04:56:11;94958.88;;;23.76;100.00
20622;BME280;10470;42.670;23.354;2023-06-24T04:58:39;94963.59;;;23.81;100.00
20622;BME280;10470;42.670;23.354;2023-06-24T05:01:07;94957.44;;;23.88;100.00
20622;BME280;10470;42.670;23.354;2023-06-24T05:03:35;94951.09;;;23.74;100.00
20622;BME280;10470;42.670;23.354;2023-06-24T05:06:03;94957.53;;;23.83;100.00
20622;BME280;10470;42.670;23.354;2023-06-24T05:08:31;94951.47;;;23.97;100.00
20622;BME280;10470;42.670;23.354;2023-06-24T05:10:59;94956.19;;;24.03;100.00
20622;BME280;10470;42.670;23.354;2023-06-24T05:13:27;94964.66;;;24.10;100.00
20622;BME280;10470;42.670;23.354;2023-06-24T05:15:55;94958.13;;;24.08;100.00
20622;BME280;10470;42.670;23.354;2023-06-24T05:18:23;94964.56;;;24.29;100.00
20622;BME280;10470;42.670;23.354;2023-06-24T05:20:50;94938.94;;;24.17;100.00
20622;BME280;10470;42.670;23.354;2023-06-24T05:23:17;94953.31;;;24.22;100.00
20622;BME280;10470;42.670;23.354;2023-06-24T05:25:44;94958.13;;;24.34;100.00
20622;BME280;10470;42.670;23.354;2023-06-24T05:28:12;94953.19;;;24.40;100.00
20622;BME280;10470;42.670;23.354;2023-06-24T05:30:41;94957.69;;;24.43;100.00
20622;BME280;10470;42.670;23.354;2023-06-24T05:33:08;94959.84;;;24.64;100.00
20622;BME280;10470;42.670;23.354;2023-06-24T05:35:35;94960.31;;;24.68;100.00
20622;BME280;10470;42.670;23.354;2023-06-24T05:38:07;94967.25;;;24.75;100.00
20622;BME280;10470;42.670;23.354;2023-06-24T05:40:35;94963.31;;;24.70;100.00
20622;BME280;10470;42.670;23.354;2023-06-24T05:43:03;94969.47;;;24.90;100.00
20622;BME280;10470;42.670;23.354;2023-06-24T05:45:30;94964.88;;;24.79;100.00
20622;BME280;10470;42.670;23.354;2023-06-24T05:47:57;94972.16;;;24.95;100.00
20622;BME280;10470;42.670;23.354;2023-06-24T05:50:24;94964.97;;;25.00;100.00
20622;BME280;10470;42.670;23.354;2023-06-24T05:52:51;94969.97;;;25.15;100.00
20622;BME280;10470;42.670;23.354;2023-06-24T05:55:19;94961.09;;;25.03;100.00
20622;BME280;10470;42.670;23.354;2023-06-24T05:57:47;94963.16;;;24.89;100.00
20622;BME280;10470;42.670;23.354;2023-06-24T06:00:18;94954.66;;;25.08;100.00
20622;BME280;10470;42.670;23.354;2023-06-24T06:02:46;94958.94;;;25.22;100.00
20622;BME280;10470;42.670;23.354;2023-06-24T06:05:13;94958.94;;;25.09;100.00
20622;BME280;10470;42.670;23.354;2023-06-24T06:07:40;94961.31;;;25.18;100.00
20622;BME280;10470;42.670;23.354;2023-06-24T06:10:09;94953.34;;;25.22;100.00
20622;BME280;10470;42.670;23.354;2023-06-24T06:12:37;94953.00;;;25.26;100.00
20622;BME280;10470;42.670;23.354;2023-06-24T06:15:04;94957.72;;;25.31;100.00
20622;BME280;10470;42.670;23.354;2023-06-24T06:17:32;94939.34;;;25.01;100.00
20622;BME280;10470;42.670;23.354;2023-06-24T06:19:59;94952.72;;;25.16;100.00
20622;BME280;10470;42.670;23.354;2023-06-24T06:22:26;94957.13;;;25.46;100.00
20622;BME280;10470;42.670;23.354;2023-06-24T06:24:53;94955.88;;;25.34;100.00
20622;BME280;10470;42.670;23.354;2023-06-24T06:27:20;94955.03;;;25.60;100.00
20622;BME280;10470;42.670;23.354;2023-06-24T06:29:47;94963.97;;;25.58;100.00
20622;BME280;10470;42.670;23.354;2023-06-24T06:32:14;94962.88;;;25.61;100.00
20622;BME280;10470;42.670;23.354;2023-06-24T06:34:41;94967.78;;;25.68;100.00
20622;BME280;10470;42.670;23.354;2023-06-24T06:37:10;94966.00;;;25.79;100.00
20622;BME280;10470;42.670;23.354;2023-06-24T06:39:37;94958.16;;;25.56;100.00
20622;BME280;10470;42.670;23.354;2023-06-24T06:42:04;94968.34;;;25.88;100.00
20622;BME280;10470;42.670;23.354;2023-06-24T06:44:31;94973.28;;;25.82;100.00
20622;BME280;10470;42.670;23.354;2023-06-24T06:46:59;94971.88;;;25.88;100.00
20622;BME280;10470;42.670;23.354;2023-06-24T06:49:26;94978.91;;;26.03;100.00
20622;BME280;10470;42.670;23.354;2023-06-24T06:51:54;94978.66;;;26.22;100.00
20622;BME280;10470;42.670;23.354;2023-06-24T06:54:22;94979.28;;;26.07;100.00
20622;BME280;10470;42.670;23.354;2023-06-24T06:56:49;94973.28;;;26.24;100.00
20622;BME280;10470;42.670;23.354;2023-06-24T06:59:18;94972.88;;;26.20;100.00
20622;BME280;10470;42.670;23.354;2023-06-24T07:01:45;94980.53;;;26.48;100.00
20622;BME280;10470;42.670;23.354;2023-06-24T07:04:13;94986.78;;;26.62;100.00
20622;BME280;10470;42.670;23.354;2023-06-24T07:06:41;94973.81;;;26.22;100.00
20622;BME280;10470;42.670;23.354;2023-06-24T07:09:08;94981.69;;;26.52;100.00
20622;BME280;10470;42.670;23.354;2023-06-24T07:11:36;94984.06;;;26.48;100.00
20622;BME280;10470;42.670;23.354;2023-06-24T07:14:04;94988.50;;;26.65;100.00
20622;BME280;10470;42.670;23.354;2023-06-24T07:16:31;94982.19;;;26.72;100.00
20622;BME280;10470;42.670;23.354;2023-06-24T07:18:57;94981.38;;;26.64;100.00
20622;BME280;10470;42.670;23.354;2023-06-24T07:21:25;94986.44;;;26.15;100.00
20622;BME280;10470;42.670;23.354;2023-06-24T07:23:52;94986.75;;;26.54;100.00
20622;BME280;10470;42.670;23.354;2023-06-24T07:26:21;94989.63;;;26.69;100.00
20622;BME280;10470;42.670;23.354;2023-06-24T07:28:50;94987.72;;;26.93;100.00
20622;BME280;10470;42.670;23.354;2023-06-24T07:31:17;94981.22;;;26.69;100.00
20622;BME280;10470;42.670;23.354;2023-06-24T07:33:45;94979.25;;;26.49;100.00
20622;BME280;10470;42.670;23.354;2023-06-24T07:36:12;94973.66;;;26.28;100.00
20622;BME280;10470;42.670;23.354;2023-06-24T07:38:41;94976.59;;;26.72;100.00
20622;BME280;10470;42.670;23.354;2023-06-24T07:41:08;94979.03;;;27.12;100.00
20622;BME280;10470;42.670;23.354;2023-06-24T07:43:36;94978.63;;;27.08;100.00
20622;BME280;10470;42.670;23.354;2023-06-24T07:46:05;94972.19;;;27.28;100.00
20622;BME280;10470;42.670;23.354;2023-06-24T07:48:32;94971.56;;;27.14;100.00
20622;BME280;10470;42.670;23.354;2023-06-24T07:51:00;94977.44;;;27.24;100.00
20622;BME280;10470;42.670;23.354;2023-06-24T07:53:28;94982.00;;;27.58;100.00
20622;BME280;10470;42.670;23.354;2023-06-24T07:55:55;94977.84;;;27.43;100.00
20622;BME280;10470;42.670;23.354;2023-06-24T07:58:23;94982.31;;;27.47;100.00
20622;BME280;10470;42.670;23.354;2023-06-24T08:00:51;94983.31;;;27.72;100.00
20622;BME280;10470;42.670;23.354;2023-06-24T08:03:18;94984.13;;;27.96;100.00
20622;BME280;10470;42.670;23.354;2023-06-24T08:05:46;94992.06;;;27.53;100.00
20622;BME280;10470;42.670;23.354;2023-06-24T08:08:13;94990.00;;;27.54;100.00
20622;BME280;10470;42.670;23.354;2023-06-24T08:10:41;94986.25;;;27.51;100.00
20622;BME280;10470;42.670;23.354;2023-06-24T08:13:09;94988.16;;;27.64;100.00
20622;BME280;10470;42.670;23.354;2023-06-24T08:15:37;94985.91;;;27.62;100.00
20622;BME280;10470;42.670;23.354;2023-06-24T08:18:04;94978.84;;;27.77;100.00
20622;BME280;10470;42.670;23.354;2023-06-24T08:20:33;94978.09;;;27.76;100.00
20622;BME280;10470;42.670;23.354;2023-06-24T08:23:01;94979.06;;;28.09;100.00
20622;BME280;10470;42.670;23.354;2023-06-24T08:25:28;94981.84;;;27.79;100.00
20622;BME280;10470;42.670;23.354;2023-06-24T08:27:58;94987.66;;;28.12;100.00
20622;BME280;10470;42.670;23.354;2023-06-24T08:30:26;94986.91;;;28.42;100.00
20622;BME280;10470;42.670;23.354;2023-06-24T08:32:55;94969.19;;;28.47;100.00
20622;BME280;10470;42.670;23.354;2023-06-24T08:35:22;94967.69;;;28.38;100.00
20622;BME280;10470;42.670;23.354;2023-06-24T08:37:50;94974.22;;;27.95;100.00
20622;BME280;10470;42.670;23.354;2023-06-24T08:40:18;94977.22;;;27.81;100.00
20622;BME280;10470;42.670;23.354;2023-06-24T08:42:45;94972.72;;;28.17;100.00
20622;BME280;10470;42.670;23.354;2023-06-24T08:45:13;94969.94;;;28.47;100.00
20622;BME280;10470;42.670;23.354;2023-06-24T08:47:41;94965.78;;;28.56;100.00
20622;BME280;10470;42.670;23.354;2023-06-24T08:50:13;94957.41;;;28.25;100.00
20622;BME280;10470;42.670;23.354;2023-06-24T08:52:51;94965.25;;;28.12;100.00
20622;BME280;10470;42.670;23.354;2023-06-24T08:55:22;94954.78;;;28.27;100.00
20622;BME280;10470;42.670;23.354;2023-06-24T08:57:50;94959.81;;;28.67;100.00
20622;BME280;10470;42.670;23.354;2023-06-24T09:00:19;94958.88;;;28.65;100.00
20622;BME280;10470;42.670;23.354;2023-06-24T09:02:47;94954.63;;;29.04;100.00
20622;BME280;10470;42.670;23.354;2023-06-24T09:05:15;94947.25;;;28.76;100.00
20622;BME280;10470;42.670;23.354;2023-06-24T09:07:43;94945.09;;;29.00;100.00
20622;BME280;10470;42.670;23.354;2023-06-24T09:10:29;94948.00;;;29.25;100.00
20622;BME280;10470;42.670;23.354;2023-06-24T09:12:57;94946.09;;;29.35;100.00
20622;BME280;10470;42.670;23.354;2023-06-24T09:15:24;94954.03;;;29.54;100.00
20622;BME280;10470;42.670;23.354;2023-06-24T09:17:51;94948.22;;;29.19;100.00
20622;BME280;10470;42.670;23.354;2023-06-24T09:20:20;94954.16;;;29.31;100.00
20622;BME280;10470;42.670;23.354;2023-06-24T09:22:49;94948.63;;;29.08;100.00
20622;BME280;10470;42.670;23.354;2023-06-24T09:25:17;94951.97;;;29.22;100.00
20622;BME280;10470;42.670;23.354;2023-06-24T09:27:48;94950.66;;;29.55;100.00
20622;BME280;10470;42.670;23.354;2023-06-24T09:30:20;94951.72;;;29.68;100.00
20622;BME280;10470;42.670;23.354;2023-06-24T09:32:49;94955.78;;;29.74;100.00
20622;BME280;10470;42.670;23.354;2023-06-24T09:35:21;94956.59;;;29.59;100.00
20622;BME280;10470;42.670;23.354;2023-06-24T09:37:50;94953.22;;;29.69;100.00
20622;BME280;10470;42.670;23.354;2023-06-24T09:40:18;94961.34;;;29.49;100.00
20622;BME280;10470;42.670;23.354;2023-06-24T09:42:53;94962.59;;;29.64;100.00
20622;BME280;10470;42.670;23.354;2023-06-24T09:45:28;94951.50;;;29.98;100.00
20622;BME280;10470;42.670;23.354;2023-06-24T09:47:57;94953.84;;;30.10;100.00
20622;BME280;10470;42.670;23.354;2023-06-24T09:50:28;94957.16;;;30.16;100.00
20622;BME280;10470;42.670;23.354;2023-06-24T09:52:57;94952.97;;;29.74;100.00
20622;BME280;10470;42.670;23.354;2023-06-24T09:55:27;94950.00;;;30.22;100.00
20622;BME280;10470;42.670;23.354;2023-06-24T09:57:54;94952.09;;;30.14;100.00
20622;BME280;10470;42.670;23.354;2023-06-24T10:00:23;94949.38;;;29.81;100.00
20622;BME280;10470;42.670;23.354;2023-06-24T10:02:53;94940.47;;;29.93;100.00
20622;BME280;10470;42.670;23.354;2023-06-24T10:05:22;94940.47;;;30.18;100.00
20622;BME280;10470;42.670;23.354;2023-06-24T10:07:50;94937.09;;;30.62;100.00
20622;BME280;10470;42.670;23.354;2023-06-24T10:10:17;94935.19;;;30.22;100.00
20622;BME280;10470;42.670;23.354;2023-06-24T10:12:45;94930.94;;;30.56;100.00
20622;BME280;10470;42.670;23.354;2023-06-24T10:15:12;94927.81;;;30.52;100.00
20622;BME280;10470;42.670;23.354;2023-06-24T10:17:39;94920.53;;;30.48;100.00
20622;BME280;10470;42.670;23.354;2023-06-24T10:20:06;94922.19;;;30.52;100.00
20622;BME280;10470;42.670;23.354;2023-06-24T10:22:35;94910.47;;;30.20;100.00
20622;BME280;10470;42.670;23.354;2023-06-24T10:25:06;94909.00;;;30.72;100.00
20622;BME280;10470;42.670;23.354;2023-06-24T10:27:40;94901.41;;;30.64;100.00
20622;BME280;10470;42.670;23.354;2023-06-24T10:30:19;94899.09;;;30.88;100.00
20622;BME280;10470;42.670;23.354;2023-06-24T10:32:51;94902.97;;;30.75;100.00
20622;BME280;10470;42.670;23.354;2023-06-24T10:35:26;94891.91;;;30.25;100.00
20622;BME280;10470;42.670;23.354;2023-06-24T10:38:01;94889.91;;;30.70;100.00
20622;BME280;10470;42.670;23.354;2023-06-24T10:40:37;94887.56;;;31.11;100.00
20622;BME280;10470;42.670;23.354;2023-06-24T10:43:25;94879.00;;;31.19;100.00
20622;BME280;10470;42.670;23.354;2023-06-24T10:45:55;94883.84;;;31.08;100.00
20622;BME280;10470;42.670;23.354;2023-06-24T10:48:22;94873.16;;;31.34;100.00
20622;BME280;10470;42.670;23.354;2023-06-24T10:50:50;94869.75;;;31.72;100.00
20622;BME280;10470;42.670;23.354;2023-06-24T10:53:19;94863.50;;;32.11;100.00
20622;BME280;10470;42.670;23.354;2023-06-24T10:55:46;94857.56;;;31.60;100.00
20622;BME280;10470;42.670;23.354;2023-06-24T10:58:14;94866.81;;;31.70;100.00
20622;BME280;10470;42.670;23.354;2023-06-24T11:00:43;94867.66;;;32.00;100.00
20622;BME280;10470;42.670;23.354;2023-06-24T11:03:15;94858.19;;;32.15;100.00
20622;BME280;10470;42.670;23.354;2023-06-24T11:05:45;94857.63;;;32.36;100.00
20622;BME280;10470;42.670;23.354;2023-06-24T11:08:13;94854.38;;;32.49;100.00
20622;BME280;10470;42.670;23.354;2023-06-24T11:10:45;94854.81;;;32.46;100.00
20622;BME280;10470;42.670;23.354;2023-06-24T11:13:14;94836.09;;;32.50;99.36
20622;BME280;10470;42.670;23.354;2023-06-24T11:15:41;94859.22;;;32.29;100.00
20622;BME280;10470;42.670;23.354;2023-06-24T11:18:10;94855.69;;;32.87;89.83
20622;BME280;10470;42.670;23.354;2023-06-24T11:20:38;94859.13;;;33.46;81.12
20622;BME280;10470;42.670;23.354;2023-06-24T11:23:09;94848.53;;;32.96;78.80
20622;BME280;10470;42.670;23.354;2023-06-24T11:25:42;94860.53;;;33.25;78.87
20622;BME280;10470;42.670;23.354;2023-06-24T11:28:31;94858.50;;;34.41;71.21
20622;BME280;10470;42.670;23.354;2023-06-24T11:31:06;94850.41;;;34.47;77.89
20622;BME280;10470;42.670;23.354;2023-06-24T11:33:34;94863.34;;;34.50;78.08
20622;BME280;10470;42.670;23.354;2023-06-24T11:36:01;94857.66;;;33.45;81.73
20622;BME280;10470;42.670;23.354;2023-06-24T11:38:28;94849.53;;;34.02;77.62
20622;BME280;10470;42.670;23.354;2023-06-24T11:40:58;94852.56;;;34.37;73.61
20622;BME280;10470;42.670;23.354;2023-06-24T11:43:26;94846.44;;;33.66;76.08
20622;BME280;10470;42.670;23.354;2023-06-24T11:45:54;94843.97;;;33.41;81.52
20622;BME280;10470;42.670;23.354;2023-06-24T11:48:21;94836.06;;;33.49;79.74
20622;BME280;10470;42.670;23.354;2023-06-24T11:50:54;94835.28;;;33.18;77.35
20622;BME280;10470;42.670;23.354;2023-06-24T11:53:42;94831.19;;;32.60;81.65
20622;BME280;10470;42.670;23.354;2023-06-24T11:56:15;94831.75;;;32.88;78.95
20622;BME280;10470;42.670;23.354;2023-06-24T11:58:43;94824.81;;;33.40;75.27
20622;BME280;10470;42.670;23.354;2023-06-24T12:01:11;94816.44;;;33.01;80.19
20622;BME280;10470;42.670;23.354;2023-06-24T12:03:41;94811.22;;;32.97;76.67
20622;BME280;10470;42.670;23.354;2023-06-24T12:06:07;94804.22;;;33.80;80.08
20622;BME280;10470;42.670;23.354;2023-06-24T12:08:35;94795.16;;;33.82;78.93
20622;BME280;10470;42.670;23.354;2023-06-24T12:11:03;94795.63;;;34.00;74.26
20622;BME280;10470;42.670;23.354;2023-06-24T12:13:30;94785.72;;;33.67;75.80
20622;BME280;10470;42.670;23.354;2023-06-24T12:15:58;94791.03;;;33.42;79.25
20622;BME280;10470;42.670;23.354;2023-06-24T12:18:26;94787.97;;;32.29;90.27
20622;BME280;10470;42.670;23.354;2023-06-24T12:20:55;94786.63;;;32.69;86.17
20622;BME280;10470;42.670;23.354;2023-06-24T12:23:22;94784.69;;;32.71;87.95
20622;BME280;10470;42.670;23.354;2023-06-24T12:25:50;94786.03;;;32.41;95.18
20622;BME280;10470;42.670;23.354;2023-06-24T12:28:18;94780.97;;;32.30;89.33
20622;BME280;10470;42.670;23.354;2023-06-24T12:30:46;94781.72;;;32.11;99.29
20622;BME280;10470;42.670;23.354;2023-06-24T12:33:14;94779.81;;;32.23;89.16
20622;BME280;10470;42.670;23.354;2023-06-24T12:35:42;94777.84;;;32.45;92.32
20622;BME280;10470;42.670;23.354;2023-06-24T12:38:09;94788.50;;;31.88;97.75
20622;BME280;10470;42.670;23.354;2023-06-24T12:40:37;94797.75;;;31.52;100.00
20622;BME280;10470;42.670;23.354;2023-06-24T12:43:05;94790.84;;;31.63;100.00
20622;BME280;10470;42.670;23.354;2023-06-24T12:45:33;94811.03;;;31.32;100.00
20622;BME280;10470;42.670;23.354;2023-06-24T12:48:00;94821.53;;;31.59;100.00
20622;BME280;10470;42.670;23.354;2023-06-24T12:50:28;94833.47;;;31.86;100.00
20622;BME280;10470;42.670;23.354;2023-06-24T12:52:58;94836.69;;;31.09;100.00
20622;BME280;10470;42.670;23.354;2023-06-24T12:55:26;94838.25;;;30.93;100.00
20622;BME280;10470;42.670;23.354;2023-06-24T12:57:53;94846.44;;;30.98;100.00
20622;BME280;10470;42.670;23.354;2023-06-24T13:00:22;94850.41;;;31.22;100.00